sensor_id;sensor_type;location;lat;lon;timestamp;temperature;humidity
20204;DHT22;10261;49.010;12.034;2022-08-11T00:00:14;18.90;91.20
20204;DHT22;10261;49.010;12.034;2022-08-11T00:01:19;18.90;91.20
20204;DHT22;10261;49.010;12.034;2022-08-11T00:02:35;18.90;91.30
20204;DHT22;10261;49.010;12.034;2022-08-11T00:03:49;18.90;91.40
20204;DHT22;10261;49.010;12.034;2022-08-11T00:04:54;18.90;91.20
20204;DHT22;10261;49.010;12.034;2022-08-11T00:05:57;18.90;91.60
20204;DHT22;10261;49.010;12.034;2022-08-11T00:07:01;18.80;91.50
20204;DHT22;10261;49.010;12.034;2022-08-11T00:08:05;18.80;91.40
20204;DHT22;10261;49.010;12.034;2022-08-11T00:09:10;18.80;91.50
20204;DHT22;10261;49.010;12.034;2022-08-11T00:10:16;18.80;91.40
20204;DHT22;10261;49.010;12.034;2022-08-11T00:11:19;18.80;91.30
20204;DHT22;10261;49.010;12.034;2022-08-11T00:12:27;18.80;91.40
20204;DHT22;10261;49.010;12.034;2022-08-11T00:13:32;18.80;91.50
20204;DHT22;10261;49.010;12.034;2022-08-11T00:14:36;18.80;91.60
20204;DHT22;10261;49.010;12.034;2022-08-11T00:15:41;18.80;91.50
20204;DHT22;10261;49.010;12.034;2022-08-11T00:16:53;18.80;91.60
20204;DHT22;10261;49.010;12.034;2022-08-11T00:17:56;18.80;91.90
20204;DHT22;10261;49.010;12.034;2022-08-11T00:19:01;18.80;91.70
20204;DHT22;10261;49.010;12.034;2022-08-11T00:20:07;18.80;91.60
20204;DHT22;10261;49.010;12.034;2022-08-11T00:21:17;18.80;91.30
20204;DHT22;10261;49.010;12.034;2022-08-11T00:22:43;18.80;91.80
20204;DHT22;10261;49.010;12.034;2022-08-11T00:23:51;18.80;91.20
20204;DHT22;10261;49.010;12.034;2022-08-11T00:24:54;18.80;91.40
20204;DHT22;10261;49.010;12.034;2022-08-11T00:26:05;18.90;91.60
20204;DHT22;10261;49.010;12.034;2022-08-11T00:27:09;18.90;92.10
20204;DHT22;10261;49.010;12.034;2022-08-11T00:28:25;18.90;91.70
20204;DHT22;10261;49.010;12.034;2022-08-11T00:29:29;18.90;91.70
20204;DHT22;10261;49.010;12.034;2022-08-11T00:30:37;18.90;91.70
20204;DHT22;10261;49.010;12.034;2022-08-11T00:31:44;18.90;92.00
20204;DHT22;10261;49.010;12.034;2022-08-11T00:32:54;18.90;91.90
20204;DHT22;10261;49.010;12.034;2022-08-11T00:34:01;19.00;91.80
20204;DHT22;10261;49.010;12.034;2022-08-11T00:35:06;19.00;91.50
20204;DHT22;10261;49.010;12.034;2022-08-11T00:36:38;19.00;91.30
20204;DHT22;10261;49.010;12.034;2022-08-11T00:37:46;19.10;91.30
20204;DHT22;10261;49.010;12.034;2022-08-11T00:38:51;19.00;91.60
20204;DHT22;10261;49.010;12.034;2022-08-11T00:39:56;19.00;91.40
20204;DHT22;10261;49.010;12.034;2022-08-11T00:41:07;19.00;91.50
20204;DHT22;10261;49.010;12.034;2022-08-11T00:42:18;19.00;91.50
20204;DHT22;10261;49.010;12.034;2022-08-11T00:43:40;19.00;91.50
20204;DHT22;10261;49.010;12.034;2022-08-11T00:45:03;19.00;91.60
20204;DHT22;10261;49.010;12.034;2022-08-11T00:46:15;19.00;91.10
20204;DHT22;10261;49.010;12.034;2022-08-11T00:47:26;19.00;91.20
20204;DHT22;10261;49.010;12.034;2022-08-11T00:48:38;19.00;91.40
20204;DHT22;10261;49.010;12.034;2022-08-11T00:49:51;19.00;91.60
20204;DHT22;10261;49.010;12.034;2022-08-11T00:51:09;19.00;91.80
20204;DHT22;10261;49.010;12.034;2022-08-11T00:52:27;19.10;91.70
20204;DHT22;10261;49.010;12.034;2022-08-11T00:53:42;19.00;91.80
20204;DHT22;10261;49.010;12.034;2022-08-11T00:57:08;19.10;91.80
20204;DHT22;10261;49.010;12.034;2022-08-11T01:00:56;19.10;92.20
20204;DHT22;10261;49.010;12.034;2022-08-11T01:02:18;19.10;92.00
20204;DHT22;10261;49.010;12.034;2022-08-11T01:03:31;19.10;91.90
20204;DHT22;10261;49.010;12.034;2022-08-11T01:06:29;19.10;91.80
20204;DHT22;10261;49.010;12.034;2022-08-11T01:08:02;19.10;91.80
20204;DHT22;10261;49.010;12.034;2022-08-11T01:09:30;19.20;91.70
20204;DHT22;10261;49.010;12.034;2022-08-11T01:12:23;19.20;92.00
20204;DHT22;10261;49.010;12.034;2022-08-11T01:15:27;19.20;92.40
20204;DHT22;10261;49.010;12.034;2022-08-11T01:17:27;19.10;92.40
20204;DHT22;10261;49.010;12.034;2022-08-11T01:20:41;19.10;92.60
20204;DHT22;10261;49.010;12.034;2022-08-11T01:22:27;19.10;92.80
20204;DHT22;10261;49.010;12.034;2022-08-11T01:27:37;18.90;93.00
20204;DHT22;10261;49.010;12.034;2022-08-11T01:29:35;18.90;93.10
20204;DHT22;10261;49.010;12.034;2022-08-11T01:31:15;18.80;93.00
20204;DHT22;10261;49.010;12.034;2022-08-11T01:33:05;18.80;93.30
20204;DHT22;10261;49.010;12.034;2022-08-11T01:36:30;18.80;93.60
20204;DHT22;10261;49.010;12.034;2022-08-11T01:41:44;18.70;93.60
20204;DHT22;10261;49.010;12.034;2022-08-11T01:45:25;18.70;92.70
20204;DHT22;10261;49.010;12.034;2022-08-11T01:46:34;18.70;92.80
20204;DHT22;10261;49.010;12.034;2022-08-11T01:47:46;18.70;92.60
20204;DHT22;10261;49.010;12.034;2022-08-11T01:49:03;18.70;92.40
20204;DHT22;10261;49.010;12.034;2022-08-11T01:50:47;18.80;92.30
20204;DHT22;10261;49.010;12.034;2022-08-11T01:52:08;18.70;92.10
20204;DHT22;10261;49.010;12.034;2022-08-11T01:53:25;18.70;92.30
20204;DHT22;10261;49.010;12.034;2022-08-11T01:54:36;18.70;92.20
20204;DHT22;10261;49.010;12.034;2022-08-11T01:55:49;18.70;92.60
20204;DHT22;10261;49.010;12.034;2022-08-11T01:57:10;18.70;92.50
20204;DHT22;10261;49.010;12.034;2022-08-11T01:58:22;18.70;92.30
20204;DHT22;10261;49.010;12.034;2022-08-11T01:59:48;18.70;92.40
20204;DHT22;10261;49.010;12.034;2022-08-11T02:01:00;18.70;92.10
20204;DHT22;10261;49.010;12.034;2022-08-11T02:02:17;18.60;92.40
20204;DHT22;10261;49.010;12.034;2022-08-11T02:03:49;18.60;92.40
20204;DHT22;10261;49.010;12.034;2022-08-11T02:04:58;18.60;92.30
20204;DHT22;10261;49.010;12.034;2022-08-11T02:06:11;18.60;92.30
20204;DHT22;10261;49.010;12.034;2022-08-11T02:07:34;18.50;92.40
20204;DHT22;10261;49.010;12.034;2022-08-11T02:08:46;18.50;92.60
20204;DHT22;10261;49.010;12.034;2022-08-11T02:10:02;18.60;92.80
20204;DHT22;10261;49.010;12.034;2022-08-11T02:11:39;18.60;92.70
20204;DHT22;10261;49.010;12.034;2022-08-11T02:12:46;18.60;92.60
20204;DHT22;10261;49.010;12.034;2022-08-11T02:13:59;18.60;92.30
20204;DHT22;10261;49.010;12.034;2022-08-11T02:15:11;18.50;92.20
20204;DHT22;10261;49.010;12.034;2022-08-11T02:16:21;18.50;92.20
20204;DHT22;10261;49.010;12.034;2022-08-11T02:17:40;18.60;92.40
20204;DHT22;10261;49.010;12.034;2022-08-11T02:18:52;18.60;92.60
20204;DHT22;10261;49.010;12.034;2022-08-11T02:20:19;18.60;92.80
20204;DHT22;10261;49.010;12.034;2022-08-11T02:21:47;18.50;92.60
20204;DHT22;10261;49.010;12.034;2022-08-11T02:23:22;18.50;92.60
20204;DHT22;10261;49.010;12.034;2022-08-11T02:25:05;18.50;92.80
20204;DHT22;10261;49.010;12.034;2022-08-11T02:26:15;18.50;92.60
20204;DHT22;10261;49.010;12.034;2022-08-11T02:27:21;18.40;92.30
20204;DHT22;10261;49.010;12.034;2022-08-11T02:28:34;18.40;92.30
20204;DHT22;10261;49.010;12.034;2022-08-11T02:29:54;18.40;92.50
20204;DHT22;10261;49.010;12.034;2022-08-11T02:31:11;18.40;92.40
20204;DHT22;10261;49.010;12.034;2022-08-11T02:33:00;18.40;92.20
20204;DHT22;10261;49.010;12.034;2022-08-11T02:34:39;18.40;92.30
20204;DHT22;10261;49.010;12.034;2022-08-11T02:36:03;18.30;92.30
20204;DHT22;10261;49.010;12.034;2022-08-11T02:37:16;18.30;92.50
20204;DHT22;10261;49.010;12.034;2022-08-11T02:38:30;18.40;92.30
20204;DHT22;10261;49.010;12.034;2022-08-11T02:39:43;18.40;92.60
20204;DHT22;10261;49.010;12.034;2022-08-11T02:40:59;18.30;92.70
20204;DHT22;10261;49.010;12.034;2022-08-11T02:42:07;18.30;92.80
20204;DHT22;10261;49.010;12.034;2022-08-11T02:43:43;18.40;92.80
20204;DHT22;10261;49.010;12.034;2022-08-11T02:46:22;18.30;92.30
20204;DHT22;10261;49.010;12.034;2022-08-11T02:47:33;18.30;92.50
20204;DHT22;10261;49.010;12.034;2022-08-11T02:48:49;18.30;92.70
20204;DHT22;10261;49.010;12.034;2022-08-11T02:50:15;18.30;92.60
20204;DHT22;10261;49.010;12.034;2022-08-11T02:51:26;18.30;92.50
20204;DHT22;10261;49.010;12.034;2022-08-11T02:52:35;18.30;92.60
20204;DHT22;10261;49.010;12.034;2022-08-11T02:53:48;18.20;92.40
20204;DHT22;10261;49.010;12.034;2022-08-11T02:55:13;18.30;92.50
20204;DHT22;10261;49.010;12.034;2022-08-11T02:56:49;18.20;92.70
20204;DHT22;10261;49.010;12.034;2022-08-11T02:57:57;18.20;92.70
20204;DHT22;10261;49.010;12.034;2022-08-11T02:59:05;18.20;92.70
20204;DHT22;10261;49.010;12.034;2022-08-11T03:00:29;18.20;92.90
20204;DHT22;10261;49.010;12.034;2022-08-11T03:01:44;18.20;93.30
20204;DHT22;10261;49.010;12.034;2022-08-11T03:02:59;18.20;93.00
20204;DHT22;10261;49.010;12.034;2022-08-11T03:04:11;18.20;92.90
20204;DHT22;10261;49.010;12.034;2022-08-11T03:05:43;18.20;93.00
20204;DHT22;10261;49.010;12.034;2022-08-11T03:06:59;18.20;93.00
20204;DHT22;10261;49.010;12.034;2022-08-11T03:08:16;18.20;92.70
20204;DHT22;10261;49.010;12.034;2022-08-11T03:09:38;18.20;93.20
20204;DHT22;10261;49.010;12.034;2022-08-11T03:10:50;18.20;93.00
20204;DHT22;10261;49.010;12.034;2022-08-11T03:12:15;18.20;92.80
20204;DHT22;10261;49.010;12.034;2022-08-11T03:13:41;18.10;92.70
20204;DHT22;10261;49.010;12.034;2022-08-11T03:15:11;18.10;93.10
20204;DHT22;10261;49.010;12.034;2022-08-11T03:16:42;18.10;92.90
20204;DHT22;10261;49.010;12.034;2022-08-11T03:18:00;18.00;93.20
20204;DHT22;10261;49.010;12.034;2022-08-11T03:19:10;18.00;93.20
20204;DHT22;10261;49.010;12.034;2022-08-11T03:20:24;17.90;93.10
20204;DHT22;10261;49.010;12.034;2022-08-11T03:21:44;17.90;93.30
20204;DHT22;10261;49.010;12.034;2022-08-11T03:23:10;17.90;93.30
20204;DHT22;10261;49.010;12.034;2022-08-11T03:24:26;17.90;93.30
20204;DHT22;10261;49.010;12.034;2022-08-11T03:25:35;17.90;93.40
20204;DHT22;10261;49.010;12.034;2022-08-11T03:26:48;17.80;93.30
20204;DHT22;10261;49.010;12.034;2022-08-11T03:28:01;17.90;93.50
20204;DHT22;10261;49.010;12.034;2022-08-11T03:29:09;17.90;93.60
20204;DHT22;10261;49.010;12.034;2022-08-11T03:30:41;17.80;93.70
20204;DHT22;10261;49.010;12.034;2022-08-11T03:31:48;17.90;93.90
20204;DHT22;10261;49.010;12.034;2022-08-11T03:33:04;17.90;93.90
20204;DHT22;10261;49.010;12.034;2022-08-11T03:34:30;17.80;93.90
20204;DHT22;10261;49.010;12.034;2022-08-11T03:35:36;17.90;93.90
20204;DHT22;10261;49.010;12.034;2022-08-11T03:39:04;17.90;94.00
20204;DHT22;10261;49.010;12.034;2022-08-11T03:42:02;17.90;94.00
20204;DHT22;10261;49.010;12.034;2022-08-11T03:43:21;17.90;94.10
20204;DHT22;10261;49.010;12.034;2022-08-11T03:44:33;17.90;93.70
20204;DHT22;10261;49.010;12.034;2022-08-11T03:45:51;17.90;93.60
20204;DHT22;10261;49.010;12.034;2022-08-11T03:48:42;17.80;93.20
20204;DHT22;10261;49.010;12.034;2022-08-11T03:50:00;17.80;93.40
20204;DHT22;10261;49.010;12.034;2022-08-11T03:51:11;17.80;93.40
20204;DHT22;10261;49.010;12.034;2022-08-11T03:52:20;17.90;93.20
20204;DHT22;10261;49.010;12.034;2022-08-11T03:53:47;17.80;92.80
20204;DHT22;10261;49.010;12.034;2022-08-11T03:54:59;17.80;92.80
20204;DHT22;10261;49.010;12.034;2022-08-11T03:56:30;17.80;92.80
20204;DHT22;10261;49.010;12.034;2022-08-11T03:59:35;17.90;92.90
20204;DHT22;10261;49.010;12.034;2022-08-11T04:04:53;18.00;92.60
20204;DHT22;10261;49.010;12.034;2022-08-11T04:06:35;18.00;92.60
20204;DHT22;10261;49.010;12.034;2022-08-11T04:08:36;18.00;92.60
20204;DHT22;10261;49.010;12.034;2022-08-11T04:12:06;18.00;92.60
20204;DHT22;10261;49.010;12.034;2022-08-11T04:14:00;18.00;92.80
20204;DHT22;10261;49.010;12.034;2022-08-11T04:19:12;18.00;92.30
20204;DHT22;10261;49.010;12.034;2022-08-11T04:22:21;18.00;92.40
20204;DHT22;10261;49.010;12.034;2022-08-11T04:27:34;18.00;92.40
20204;DHT22;10261;49.010;12.034;2022-08-11T04:29:02;18.00;92.30
20204;DHT22;10261;49.010;12.034;2022-08-11T04:30:16;17.90;92.10
20204;DHT22;10261;49.010;12.034;2022-08-11T04:31:33;17.90;92.30
20204;DHT22;10261;49.010;12.034;2022-08-11T04:33:09;17.90;92.30
20204;DHT22;10261;49.010;12.034;2022-08-11T04:34:41;18.00;92.60
20204;DHT22;10261;49.010;12.034;2022-08-11T04:35:52;18.00;92.60
20204;DHT22;10261;49.010;12.034;2022-08-11T04:37:20;18.00;92.60
20204;DHT22;10261;49.010;12.034;2022-08-11T04:39:03;18.00;92.60
20204;DHT22;10261;49.010;12.034;2022-08-11T04:42:06;18.10;92.80
20204;DHT22;10261;49.010;12.034;2022-08-11T04:44:15;18.10;92.70
20204;DHT22;10261;49.010;12.034;2022-08-11T04:47:18;18.10;92.60
20204;DHT22;10261;49.010;12.034;2022-08-11T04:53:21;18.10;92.90
20204;DHT22;10261;49.010;12.034;2022-08-11T04:54:53;18.10;93.30
20204;DHT22;10261;49.010;12.034;2022-08-11T04:56:20;18.10;93.10
20204;DHT22;10261;49.010;12.034;2022-08-11T04:57:52;18.20;93.50
20204;DHT22;10261;49.010;12.034;2022-08-11T04:59:47;18.20;93.60
20204;DHT22;10261;49.010;12.034;2022-08-11T05:01:26;18.20;93.40
20204;DHT22;10261;49.010;12.034;2022-08-11T05:04:49;18.20;93.50
20204;DHT22;10261;49.010;12.034;2022-08-11T05:08:31;18.30;93.00
20204;DHT22;10261;49.010;12.034;2022-08-11T05:10:02;18.20;93.10
20204;DHT22;10261;49.010;12.034;2022-08-11T05:12:49;18.30;93.40
20204;DHT22;10261;49.010;12.034;2022-08-11T05:14:17;18.20;93.00
20204;DHT22;10261;49.010;12.034;2022-08-11T05:15:46;18.30;93.00
20204;DHT22;10261;49.010;12.034;2022-08-11T05:17:10;18.30;93.00
20204;DHT22;10261;49.010;12.034;2022-08-11T05:18:34;18.30;92.50
20204;DHT22;10261;49.010;12.034;2022-08-11T05:20:08;18.40;92.80
20204;DHT22;10261;49.010;12.034;2022-08-11T05:21:31;18.40;93.30
20204;DHT22;10261;49.010;12.034;2022-08-11T05:22:53;18.30;93.40
20204;DHT22;10261;49.010;12.034;2022-08-11T05:24:19;18.40;93.60
20204;DHT22;10261;49.010;12.034;2022-08-11T05:25:44;18.40;92.80
20204;DHT22;10261;49.010;12.034;2022-08-11T05:27:34;18.40;92.60
20204;DHT22;10261;49.010;12.034;2022-08-11T05:29:01;18.40;91.50
20204;DHT22;10261;49.010;12.034;2022-08-11T05:30:26;18.50;91.40
20204;DHT22;10261;49.010;12.034;2022-08-11T05:31:55;18.50;91.50
20204;DHT22;10261;49.010;12.034;2022-08-11T05:33:22;18.60;91.80
20204;DHT22;10261;49.010;12.034;2022-08-11T05:34:50;18.50;92.90
20204;DHT22;10261;49.010;12.034;2022-08-11T05:36:00;18.50;92.60
20204;DHT22;10261;49.010;12.034;2022-08-11T05:37:06;18.50;92.10
20204;DHT22;10261;49.010;12.034;2022-08-11T05:38:30;18.50;92.50
20204;DHT22;10261;49.010;12.034;2022-08-11T05:39:56;18.60;92.90
20204;DHT22;10261;49.010;12.034;2022-08-11T05:41:18;18.50;92.40
20204;DHT22;10261;49.010;12.034;2022-08-11T05:42:42;18.60;92.10
20204;DHT22;10261;49.010;12.034;2022-08-11T05:44:04;18.60;91.80
20204;DHT22;10261;49.010;12.034;2022-08-11T05:45:26;18.60;92.10
20204;DHT22;10261;49.010;12.034;2022-08-11T05:47:07;18.70;92.60
20204;DHT22;10261;49.010;12.034;2022-08-11T05:50:33;18.70;92.90
20204;DHT22;10261;49.010;12.034;2022-08-11T05:51:54;18.70;93.30
20204;DHT22;10261;49.010;12.034;2022-08-11T05:53:17;18.70;92.90
20204;DHT22;10261;49.010;12.034;2022-08-11T05:54:47;18.60;93.00
20204;DHT22;10261;49.010;12.034;2022-08-11T05:56:10;18.70;92.70
20204;DHT22;10261;49.010;12.034;2022-08-11T05:57:22;18.70;92.90
20204;DHT22;10261;49.010;12.034;2022-08-11T05:58:49;18.70;92.90
20204;DHT22;10261;49.010;12.034;2022-08-11T05:59:58;18.80;93.10
20204;DHT22;10261;49.010;12.034;2022-08-11T06:01:01;18.70;93.20
20204;DHT22;10261;49.010;12.034;2022-08-11T06:02:06;18.70;93.00
20204;DHT22;10261;49.010;12.034;2022-08-11T06:03:11;18.80;93.30
20204;DHT22;10261;49.010;12.034;2022-08-11T06:04:23;18.80;93.30
20204;DHT22;10261;49.010;12.034;2022-08-11T06:05:32;18.80;93.50
20204;DHT22;10261;49.010;12.034;2022-08-11T06:06:53;18.80;93.10
20204;DHT22;10261;49.010;12.034;2022-08-11T06:07:57;18.90;92.90
20204;DHT22;10261;49.010;12.034;2022-08-11T06:09:00;18.90;93.10
20204;DHT22;10261;49.010;12.034;2022-08-11T06:10:05;18.90;93.40
20204;DHT22;10261;49.010;12.034;2022-08-11T06:11:09;18.90;93.30
20204;DHT22;10261;49.010;12.034;2022-08-11T06:12:17;18.90;92.90
20204;DHT22;10261;49.010;12.034;2022-08-11T06:13:20;18.90;93.00
20204;DHT22;10261;49.010;12.034;2022-08-11T06:14:29;19.00;93.40
20204;DHT22;10261;49.010;12.034;2022-08-11T06:15:43;19.00;93.20
20204;DHT22;10261;49.010;12.034;2022-08-11T06:16:48;19.00;93.40
20204;DHT22;10261;49.010;12.034;2022-08-11T06:17:52;19.00;93.10
20204;DHT22;10261;49.010;12.034;2022-08-11T06:18:57;19.00;93.40
20204;DHT22;10261;49.010;12.034;2022-08-11T06:20:03;19.10;93.30
20204;DHT22;10261;49.010;12.034;2022-08-11T06:21:09;19.10;93.40
20204;DHT22;10261;49.010;12.034;2022-08-11T06:22:12;19.10;93.10
20204;DHT22;10261;49.010;12.034;2022-08-11T06:23:17;19.20;93.20
20204;DHT22;10261;49.010;12.034;2022-08-11T06:25:39;19.20;93.20
20204;DHT22;10261;49.010;12.034;2022-08-11T06:26:48;19.20;92.90
20204;DHT22;10261;49.010;12.034;2022-08-11T06:28:12;19.20;92.70
20204;DHT22;10261;49.010;12.034;2022-08-11T06:29:23;19.20;92.60
20204;DHT22;10261;49.010;12.034;2022-08-11T06:30:47;19.30;92.60
20204;DHT22;10261;49.010;12.034;2022-08-11T06:31:52;19.30;92.60
20204;DHT22;10261;49.010;12.034;2022-08-11T06:32:59;19.30;92.90
20204;DHT22;10261;49.010;12.034;2022-08-11T06:34:10;19.30;93.00
20204;DHT22;10261;49.010;12.034;2022-08-11T06:35:37;19.30;92.70
20204;DHT22;10261;49.010;12.034;2022-08-11T06:36:53;19.30;92.10
20204;DHT22;10261;49.010;12.034;2022-08-11T06:38:08;20.10;92.50
20204;DHT22;10261;49.010;12.034;2022-08-11T06:39:18;19.40;91.90
20204;DHT22;10261;49.010;12.034;2022-08-11T06:40:30;19.40;92.10
20204;DHT22;10261;49.010;12.034;2022-08-11T06:41:39;19.40;92.00
20204;DHT22;10261;49.010;12.034;2022-08-11T06:42:52;19.40;92.20
20204;DHT22;10261;49.010;12.034;2022-08-11T06:44:01;19.50;91.80
20204;DHT22;10261;49.010;12.034;2022-08-11T06:45:15;19.50;92.00
20204;DHT22;10261;49.010;12.034;2022-08-11T06:46:25;19.50;92.10
20204;DHT22;10261;49.010;12.034;2022-08-11T06:47:29;19.50;92.20
20204;DHT22;10261;49.010;12.034;2022-08-11T06:48:34;19.50;99.00
20204;DHT22;10261;49.010;12.034;2022-08-11T06:49:43;19.40;99.90
20204;DHT22;10261;49.010;12.034;2022-08-11T06:51:07;19.10;99.90
20204;DHT22;10261;49.010;12.034;2022-08-11T06:52:13;19.00;99.90
20204;DHT22;10261;49.010;12.034;2022-08-11T06:53:38;18.90;99.90
20204;DHT22;10261;49.010;12.034;2022-08-11T06:55:06;18.90;99.90
20204;DHT22;10261;49.010;12.034;2022-08-11T06:56:33;18.80;99.90
20204;DHT22;10261;49.010;12.034;2022-08-11T06:58:17;18.80;99.90
20204;DHT22;10261;49.010;12.034;2022-08-11T06:59:38;18.80;99.90
20204;DHT22;10261;49.010;12.034;2022-08-11T07:01:04;18.80;99.90
20204;DHT22;10261;49.010;12.034;2022-08-11T07:02:14;18.80;99.90
20204;DHT22;10261;49.010;12.034;2022-08-11T07:03:19;18.80;99.90
20204;DHT22;10261;49.010;12.034;2022-08-11T07:04:28;18.80;99.90
20204;DHT22;10261;49.010;12.034;2022-08-11T07:05:39;18.90;99.90
20204;DHT22;10261;49.010;12.034;2022-08-11T07:06:54;18.90;99.90
20204;DHT22;10261;49.010;12.034;2022-08-11T07:10:27;18.90;99.90
20204;DHT22;10261;49.010;12.034;2022-08-11T07:12:13;19.00;99.90
20204;DHT22;10261;49.010;12.034;2022-08-11T07:13:37;19.00;99.90
20204;DHT22;10261;49.010;12.034;2022-08-11T07:15:02;19.00;99.90
20204;DHT22;10261;49.010;12.034;2022-08-11T07:16:27;19.10;99.90
20204;DHT22;10261;49.010;12.034;2022-08-11T07:17:35;19.10;99.90
20204;DHT22;10261;49.010;12.034;2022-08-11T07:18:39;19.10;99.90
20204;DHT22;10261;49.010;12.034;2022-08-11T07:20:02;19.20;99.90
20204;DHT22;10261;49.010;12.034;2022-08-11T07:21:27;19.20;99.90
20204;DHT22;10261;49.010;12.034;2022-08-11T07:23:06;19.20;99.90
20204;DHT22;10261;49.010;12.034;2022-08-11T07:24:32;19.30;99.90
20204;DHT22;10261;49.010;12.034;2022-08-11T07:26:04;19.30;99.90
20204;DHT22;10261;49.010;12.034;2022-08-11T07:27:32;19.30;99.90
20204;DHT22;10261;49.010;12.034;2022-08-11T07:28:55;19.30;99.90
20204;DHT22;10261;49.010;12.034;2022-08-11T07:30:03;19.30;99.90
20204;DHT22;10261;49.010;12.034;2022-08-11T07:31:09;19.30;99.90
20204;DHT22;10261;49.010;12.034;2022-08-11T07:32:19;19.30;99.90
20204;DHT22;10261;49.010;12.034;2022-08-11T07:33:31;19.30;99.90
20204;DHT22;10261;49.010;12.034;2022-08-11T07:35:03;19.40;99.90
20204;DHT22;10261;49.010;12.034;2022-08-11T07:36:10;19.40;99.90
20204;DHT22;10261;49.010;12.034;2022-08-11T07:37:15;19.40;99.90
20204;DHT22;10261;49.010;12.034;2022-08-11T07:38:22;19.40;99.90
20204;DHT22;10261;49.010;12.034;2022-08-11T07:39:30;19.50;99.90
20204;DHT22;10261;49.010;12.034;2022-08-11T07:40:34;19.50;99.90
20204;DHT22;10261;49.010;12.034;2022-08-11T07:41:37;19.50;99.90
20204;DHT22;10261;49.010;12.034;2022-08-11T07:42:42;19.60;99.90
20204;DHT22;10261;49.010;12.034;2022-08-11T07:43:49;19.50;99.90
20204;DHT22;10261;49.010;12.034;2022-08-11T07:44:54;19.60;99.90
20204;DHT22;10261;49.010;12.034;2022-08-11T07:46:16;19.60;99.90
20204;DHT22;10261;49.010;12.034;2022-08-11T07:47:38;19.60;99.90
20204;DHT22;10261;49.010;12.034;2022-08-11T07:49:01;19.60;99.90
20204;DHT22;10261;49.010;12.034;2022-08-11T07:50:22;19.70;99.90
20204;DHT22;10261;49.010;12.034;2022-08-11T07:51:45;19.70;99.90
20204;DHT22;10261;49.010;12.034;2022-08-11T07:53:06;19.70;99.90
20204;DHT22;10261;49.010;12.034;2022-08-11T07:54:10;19.80;99.90
20204;DHT22;10261;49.010;12.034;2022-08-11T07:55:20;19.80;99.90
20204;DHT22;10261;49.010;12.034;2022-08-11T07:56:46;19.80;99.90
20204;DHT22;10261;49.010;12.034;2022-08-11T07:57:57;19.80;99.90
20204;DHT22;10261;49.010;12.034;2022-08-11T07:59:21;19.90;99.90
20204;DHT22;10261;49.010;12.034;2022-08-11T08:01:03;19.90;99.90
20204;DHT22;10261;49.010;12.034;2022-08-11T08:02:24;19.90;99.90
20204;DHT22;10261;49.010;12.034;2022-08-11T08:03:44;19.90;99.90
20204;DHT22;10261;49.010;12.034;2022-08-11T08:05:06;19.90;99.90
20204;DHT22;10261;49.010;12.034;2022-08-11T08:06:29;20.00;99.90
20204;DHT22;10261;49.010;12.034;2022-08-11T08:07:52;20.00;99.90
20204;DHT22;10261;49.010;12.034;2022-08-11T08:09:16;20.10;99.90
20204;DHT22;10261;49.010;12.034;2022-08-11T08:10:37;20.10;99.90
20204;DHT22;10261;49.010;12.034;2022-08-11T08:12:00;20.10;99.90
20204;DHT22;10261;49.010;12.034;2022-08-11T08:13:22;20.10;99.90
20204;DHT22;10261;49.010;12.034;2022-08-11T08:14:42;20.10;99.90
20204;DHT22;10261;49.010;12.034;2022-08-11T08:16:03;20.10;99.90
20204;DHT22;10261;49.010;12.034;2022-08-11T08:17:24;20.10;99.90
20204;DHT22;10261;49.010;12.034;2022-08-11T08:19:05;20.20;99.90
20204;DHT22;10261;49.010;12.034;2022-08-11T08:20:12;20.20;99.90
20204;DHT22;10261;49.010;12.034;2022-08-11T08:21:15;20.20;99.90
20204;DHT22;10261;49.010;12.034;2022-08-11T08:22:19;20.20;99.90
20204;DHT22;10261;49.010;12.034;2022-08-11T08:23:44;20.30;99.90
20204;DHT22;10261;49.010;12.034;2022-08-11T08:24:54;20.20;99.90
20204;DHT22;10261;49.010;12.034;2022-08-11T08:25:57;20.20;99.90
20204;DHT22;10261;49.010;12.034;2022-08-11T08:27:02;20.30;99.90
20204;DHT22;10261;49.010;12.034;2022-08-11T08:28:06;20.20;99.90
20204;DHT22;10261;49.010;12.034;2022-08-11T08:29:09;20.20;99.90
20204;DHT22;10261;49.010;12.034;2022-08-11T08:30:30;20.20;99.90
20204;DHT22;10261;49.010;12.034;2022-08-11T08:31:52;20.30;99.90
20204;DHT22;10261;49.010;12.034;2022-08-11T08:32:55;20.30;99.90
20204;DHT22;10261;49.010;12.034;2022-08-11T08:34:01;20.30;99.90
20204;DHT22;10261;49.010;12.034;2022-08-11T08:35:04;20.30;99.90
20204;DHT22;10261;49.010;12.034;2022-08-11T08:36:08;20.30;99.90
20204;DHT22;10261;49.010;12.034;2022-08-11T08:37:17;20.30;99.90
20204;DHT22;10261;49.010;12.034;2022-08-11T08:38:45;20.30;99.90
20204;DHT22;10261;49.010;12.034;2022-08-11T08:39:49;20.40;99.90
20204;DHT22;10261;49.010;12.034;2022-08-11T08:40:51;20.40;99.90
20204;DHT22;10261;49.010;12.034;2022-08-11T08:41:58;20.40;99.90
20204;DHT22;10261;49.010;12.034;2022-08-11T08:43:03;20.40;99.90
20204;DHT22;10261;49.010;12.034;2022-08-11T08:44:10;20.40;99.90
20204;DHT22;10261;49.010;12.034;2022-08-11T08:45:34;20.40;99.90
20204;DHT22;10261;49.010;12.034;2022-08-11T08:46:42;20.40;99.90
20204;DHT22;10261;49.010;12.034;2022-08-11T08:47:47;20.40;99.90
20204;DHT22;10261;49.010;12.034;2022-08-11T08:48:54;20.40;99.90
20204;DHT22;10261;49.010;12.034;2022-08-11T08:49:59;20.40;99.90
20204;DHT22;10261;49.010;12.034;2022-08-11T08:51:09;20.40;99.90
20204;DHT22;10261;49.010;12.034;2022-08-11T08:52:54;20.40;99.90
20204;DHT22;10261;49.010;12.034;2022-08-11T08:54:05;20.40;99.90
20204;DHT22;10261;49.010;12.034;2022-08-11T08:55:11;20.50;99.40
20204;DHT22;10261;49.010;12.034;2022-08-11T08:56:18;20.40;99.30
20204;DHT22;10261;49.010;12.034;2022-08-11T08:57:27;20.50;99.70
20204;DHT22;10261;49.010;12.034;2022-08-11T08:58:30;20.50;99.20
20204;DHT22;10261;49.010;12.034;2022-08-11T08:59:39;20.50;98.90
20204;DHT22;10261;49.010;12.034;2022-08-11T09:00:53;20.50;98.80
20204;DHT22;10261;49.010;12.034;2022-08-11T09:01:57;20.50;99.10
20204;DHT22;10261;49.010;12.034;2022-08-11T09:03:00;20.50;98.70
20204;DHT22;10261;49.010;12.034;2022-08-11T09:04:24;20.50;98.90
20204;DHT22;10261;49.010;12.034;2022-08-11T09:05:27;20.50;99.30
20204;DHT22;10261;49.010;12.034;2022-08-11T09:06:31;20.50;98.90
20204;DHT22;10261;49.010;12.034;2022-08-11T09:07:34;20.50;98.40